createdAt,value
2019-04-03T00:00:36.192Z,994.24
2019-04-03T00:01:16.592Z,994.27
2019-04-03T00:01:56.989Z,994.24
2019-04-03T00:02:37.409Z,994.21
2019-04-03T00:03:17.821Z,994.21
2019-04-03T00:03:58.201Z,994.23
2019-04-03T00:04:38.614Z,994.23
2019-04-03T00:05:19.008Z,994.23
2019-04-03T00:05:59.436Z,994.18
2019-04-03T00:06:39.844Z,994.16
2019-04-03T00:07:20.253Z,994.18
2019-04-03T00:08:00.641Z,994.15
2019-04-03T00:08:41.021Z,994.11
2019-04-03T00:09:21.433Z,994.11
2019-04-03T00:10:01.940Z,994.09
2019-04-03T00:10:42.272Z,994.06
2019-04-03T00:11:22.631Z,994.11
2019-04-03T00:12:03.152Z,994.08
2019-04-03T00:12:43.392Z,994.08
2019-04-03T00:13:23.808Z,994.06
2019-04-03T00:14:04.215Z,994.08
2019-04-03T00:14:44.588Z,994.1
2019-04-03T00:15:25.028Z,994.1
2019-04-03T00:16:05.541Z,994.03
2019-04-03T00:16:46.063Z,994.02
2019-04-03T00:17:26.281Z,994.03
2019-04-03T00:18:06.715Z,994.03
2019-04-03T00:18:47.950Z,994.02
2019-04-03T00:19:27.649Z,994.01
2019-04-03T00:20:07.957Z,994.01
2019-04-03T00:20:49.188Z,994.03
2019-04-03T00:21:28.796Z,993.99
2019-04-03T00:22:09.209Z,994.02
2019-04-03T00:22:51.565Z,994.01
2019-04-03T00:23:30.044Z,993.99
2019-04-03T00:24:10.452Z,993.98
2019-04-03T00:24:52.564Z,994
2019-04-03T00:25:31.290Z,994
2019-04-03T00:26:11.710Z,994
2019-04-03T00:26:52.831Z,994.01
2019-04-03T00:27:32.547Z,993.98
2019-04-03T00:28:12.958Z,994.05
2019-04-03T00:28:53.380Z,994.05
2019-04-03T00:29:33.775Z,994.05
2019-04-03T00:30:14.223Z,994.03
2019-04-03T00:30:54.577Z,994.02
2019-04-03T00:31:34.981Z,994.02
2019-04-03T00:32:15.350Z,994.01
2019-04-03T00:32:55.807Z,994.07
2019-04-03T00:33:36.146Z,994.1
2019-04-03T00:34:16.607Z,994.15
2019-04-03T00:34:56.948Z,994.19
2019-04-03T00:35:37.334Z,994.14
2019-04-03T00:36:17.826Z,994.14
2019-04-03T00:36:58.111Z,994.1
2019-04-03T00:37:38.561Z,994.1
2019-04-03T00:38:18.964Z,994.09
2019-04-03T00:38:59.313Z,994.12
2019-04-03T00:39:39.703Z,994.08
2019-04-03T00:40:20.132Z,994.11
2019-04-03T00:41:00.490Z,994.07
2019-04-03T00:41:41.832Z,994.14
2019-04-03T00:42:24.038Z,994.16
2019-04-03T00:43:02.611Z,994.1
2019-04-03T00:43:43.006Z,994.13
2019-04-03T00:44:24.222Z,994.11
2019-04-03T00:45:03.784Z,994.13
2019-04-03T00:45:44.239Z,994.12
2019-04-03T00:46:25.161Z,994.12
2019-04-03T00:47:05.113Z,994.08
2019-04-03T00:47:45.620Z,994.07
2019-04-03T00:48:26.166Z,994.06
2019-04-03T00:49:06.389Z,994.04
2019-04-03T00:49:46.742Z,994
2019-04-03T00:50:27.231Z,994.03
2019-04-03T00:51:07.572Z,994.04
2019-04-03T00:51:48.079Z,994.07
2019-04-03T00:52:28.402Z,994.06
2019-04-03T00:53:08.810Z,994.03
2019-04-03T00:53:49.202Z,994.01
2019-04-03T00:54:31.085Z,994.01
2019-04-03T00:55:10.025Z,994.03
2019-04-03T00:55:50.426Z,994.01
2019-04-03T00:56:30.786Z,994
2019-04-03T00:57:11.172Z,994.01
2019-04-03T00:57:51.583Z,993.99
2019-04-03T00:58:32.821Z,993.98
2019-04-03T00:59:13.259Z,993.95
2019-04-03T00:59:54.664Z,993.95
2019-04-03T01:00:33.953Z,993.92
2019-04-03T01:01:14.387Z,993.91
2019-04-03T01:01:56.443Z,993.91
2019-04-03T01:02:35.232Z,993.93
2019-04-03T01:03:15.896Z,993.96
2019-04-03T01:03:56.780Z,993.95
2019-04-03T01:04:36.562Z,993.96
2019-04-03T01:05:16.980Z,993.93
2019-04-03T01:05:58.329Z,994.01
2019-04-03T01:06:37.769Z,994
2019-04-03T01:07:18.127Z,994.01
2019-04-03T01:07:59.787Z,993.97
2019-04-03T01:08:38.915Z,993.95
2019-04-03T01:12:17.349Z,994.08
2019-04-03T01:13:12.607Z,994.03
2019-04-03T01:21:37.578Z,994.12
2019-04-03T01:24:00.936Z,994.08
2019-04-03T01:24:41.196Z,994.14
2019-04-03T01:25:21.584Z,994.09
2019-04-03T01:26:01.969Z,994.11
2019-04-03T01:26:42.409Z,994.08
2019-04-03T01:27:22.957Z,994.06
2019-04-03T01:28:03.189Z,994.03
2019-04-03T01:28:43.638Z,994.06
2019-04-03T01:29:23.965Z,994.04
2019-04-03T01:30:04.357Z,994.05
2019-04-03T01:30:44.814Z,994.07
2019-04-03T01:31:25.156Z,994.04
2019-04-03T01:32:05.561Z,994.05
2019-04-03T01:32:46.596Z,994.01
2019-04-03T01:33:26.324Z,994.01
2019-04-03T01:34:06.733Z,993.98
2019-04-03T01:34:47.941Z,993.99
2019-04-03T01:35:27.526Z,993.96
2019-04-03T01:36:07.931Z,993.98
2019-04-03T01:36:48.664Z,993.95
2019-04-03T01:37:28.845Z,993.97
2019-04-03T01:38:09.119Z,994.01
2019-04-03T01:38:50.281Z,993.94
2019-04-03T01:39:30.111Z,993.97
2019-04-03T01:40:10.425Z,993.98
2019-04-03T01:40:51.162Z,993.94
2019-04-03T01:41:31.330Z,993.96
2019-04-03T01:42:11.835Z,993.92
2019-04-03T01:42:53.142Z,993.94
2019-04-03T01:43:32.641Z,993.93
2019-04-03T01:44:13.020Z,993.93
2019-04-03T01:44:54.974Z,993.88
2019-04-03T01:45:33.865Z,993.89
2019-04-03T01:46:14.278Z,993.88
2019-04-03T01:46:57.285Z,993.85
2019-04-03T01:47:35.083Z,993.8
2019-04-03T01:48:15.477Z,993.78
2019-04-03T01:48:56.707Z,993.76
2019-04-03T01:49:36.250Z,993.7
2019-04-03T01:52:52.751Z,993.74
2019-04-03T01:53:33.239Z,993.73
2019-04-03T01:54:13.483Z,993.77
2019-04-03T01:54:53.885Z,993.81
2019-04-03T01:55:35.074Z,993.81
2019-04-03T01:56:14.709Z,993.83
2019-04-03T01:56:55.118Z,993.83
2019-04-03T01:57:36.641Z,993.8
2019-04-03T01:58:15.916Z,993.85
2019-04-03T01:58:56.315Z,993.84
2019-04-03T01:59:37.491Z,993.84
2019-04-03T02:00:17.144Z,993.83
2019-04-03T02:00:57.546Z,993.83
2019-04-03T02:01:38.908Z,993.82
2019-04-03T02:02:18.388Z,993.81
2019-04-03T02:03:01.456Z,993.79
2019-04-03T02:03:41.077Z,993.77
2019-04-03T02:04:19.634Z,993.76
2019-04-03T02:05:00.043Z,993.77
2019-04-03T02:05:43.020Z,993.77
2019-04-03T02:06:20.872Z,993.77
2019-04-03T02:07:01.288Z,993.77
2019-04-03T02:07:44.037Z,993.81
2019-04-03T02:08:22.141Z,993.82
2019-04-03T02:09:02.507Z,993.88
2019-04-03T02:09:42.950Z,993.89
2019-04-03T02:10:23.336Z,993.92
2019-04-03T02:11:03.765Z,993.91
2019-04-03T02:11:44.313Z,993.92
2019-04-03T02:12:24.580Z,993.88
2019-04-03T02:13:05.045Z,993.86
2019-04-03T02:13:45.426Z,993.85
2019-04-03T02:14:25.861Z,993.84
2019-04-03T02:15:06.409Z,993.82
2019-04-03T02:15:46.677Z,993.78
2019-04-03T02:16:27.097Z,993.77
2019-04-03T02:17:07.511Z,993.78
2019-04-03T02:17:47.936Z,993.76
2019-04-03T02:18:28.403Z,993.74
2019-04-03T02:19:08.781Z,993.69
2019-04-03T02:19:49.195Z,993.65
2019-04-03T02:20:29.683Z,993.64
2019-04-03T02:21:10.003Z,993.64
2019-04-03T02:21:50.503Z,993.63
2019-04-03T02:22:30.760Z,993.65
2019-04-03T02:23:11.183Z,993.69
2019-04-03T02:23:51.596Z,993.69
2019-04-03T02:24:32.209Z,993.69
2019-04-03T02:25:12.454Z,993.7
2019-04-03T02:25:52.847Z,993.73
2019-04-03T02:26:33.246Z,993.73
2019-04-03T02:27:13.611Z,993.73
2019-04-03T02:27:53.988Z,993.72
2019-04-03T02:28:35.192Z,993.73
2019-04-03T02:29:14.844Z,993.7
2019-04-03T02:29:55.350Z,993.69
2019-04-03T02:30:35.843Z,993.74
2019-04-03T02:31:18.796Z,993.68
2019-04-03T02:31:56.432Z,993.65
2019-04-03T02:32:36.829Z,993.67
2019-04-03T02:33:17.214Z,993.64
2019-04-03T02:34:01.082Z,993.61
2019-04-03T02:34:38.345Z,993.61
2019-04-03T02:35:18.467Z,993.64
2019-04-03T02:35:58.873Z,993.62
2019-04-03T02:36:39.225Z,993.67
2019-04-03T02:37:19.715Z,993.66
2019-04-03T02:38:00.269Z,993.69
2019-04-03T02:38:40.410Z,993.66
2019-04-03T02:39:20.868Z,993.65
2019-04-03T02:40:01.212Z,993.68
2019-04-03T02:40:41.627Z,993.59
2019-04-03T02:41:22.057Z,993.6
2019-04-03T02:42:02.314Z,993.57
2019-04-03T02:42:42.715Z,993.57
2019-04-03T02:43:23.116Z,993.57
2019-04-03T02:44:03.777Z,993.53
2019-04-03T02:44:43.945Z,993.59
2019-04-03T02:45:24.909Z,993.56
2019-04-03T02:46:04.704Z,993.59
2019-04-03T02:46:45.628Z,993.6
2019-04-03T02:47:25.504Z,993.59
2019-04-03T02:48:06.488Z,993.57
2019-04-03T02:48:46.326Z,993.58
2019-04-03T02:49:26.738Z,993.55
2019-04-03T02:50:07.157Z,993.55
2019-04-03T02:50:48.409Z,993.53
2019-04-03T02:51:28.122Z,993.56
2019-04-03T02:52:08.424Z,993.53
2019-04-03T02:52:48.802Z,993.52
2019-04-03T02:53:30.402Z,993.46
2019-04-03T02:54:09.632Z,993.49
2019-04-03T02:54:50.201Z,993.47
2019-04-03T02:55:30.456Z,993.48
2019-04-03T02:56:12.620Z,993.48
2019-04-03T02:56:51.329Z,993.49
2019-04-03T02:57:31.986Z,993.48
2019-04-03T02:58:12.134Z,993.52
2019-04-03T02:58:53.894Z,993.46
2019-04-03T02:59:33.074Z,993.48
2019-04-03T03:00:13.419Z,993.5
2019-04-03T03:00:53.809Z,993.54
2019-04-03T03:01:34.199Z,993.59
2019-04-03T03:02:14.741Z,993.62
2019-04-03T03:02:55.049Z,993.61
2019-04-03T03:03:35.848Z,993.64
2019-04-03T03:04:15.844Z,993.64
2019-04-03T03:04:56.274Z,993.66
2019-04-03T03:05:36.656Z,993.65
2019-04-03T03:06:17.441Z,993.66
2019-04-03T03:06:57.478Z,993.66
2019-04-03T03:07:37.905Z,993.67
2019-04-03T03:08:21.964Z,993.67
2019-04-03T03:08:58.772Z,993.67
2019-04-03T03:09:39.148Z,993.67
2019-04-03T03:10:20.326Z,993.7
2019-04-03T03:10:59.997Z,993.71
2019-04-03T03:11:40.513Z,993.7
2019-04-03T03:12:20.835Z,993.72
2019-04-03T03:13:02.335Z,993.69
2019-04-03T03:13:41.676Z,993.69
2019-04-03T03:14:22.092Z,993.7
2019-04-03T03:15:02.575Z,993.67
2019-04-03T03:15:43.764Z,993.68
2019-04-03T03:16:23.542Z,993.67
2019-04-03T03:17:03.822Z,993.68
2019-04-03T03:17:44.197Z,993.66
2019-04-03T03:18:26.876Z,993.69
2019-04-03T03:19:05.339Z,993.65
2019-04-03T03:19:45.319Z,993.7
2019-04-03T03:20:25.748Z,993.68
2019-04-03T03:21:06.315Z,993.67
2019-04-03T03:21:46.521Z,993.66
2019-04-03T03:22:26.946Z,993.66
2019-04-03T03:23:07.368Z,993.64
2019-04-03T03:23:47.925Z,993.69
2019-04-03T03:24:29.304Z,993.63
2019-04-03T03:25:08.579Z,993.65
2019-04-03T03:25:49.037Z,993.64
2019-04-03T03:26:29.659Z,993.68
2019-04-03T03:27:10.301Z,993.68
2019-04-03T03:27:50.277Z,993.67
2019-04-03T03:28:30.709Z,993.67
2019-04-03T03:29:17.266Z,993.65
2019-04-03T03:29:51.488Z,993.71
2019-04-03T03:30:43.138Z,993.69
2019-04-03T03:31:16.173Z,993.68
2019-04-03T03:32:10.579Z,993.64
2019-04-03T03:32:40.872Z,993.6
2019-04-03T03:33:29.576Z,993.61
2019-04-03T03:34:05.024Z,993.63
2019-04-03T03:34:54.620Z,993.62
2019-04-03T03:35:30.012Z,993.56
2019-04-03T03:36:07.193Z,993.58
2019-04-03T03:36:47.187Z,993.58
2019-04-03T03:37:27.788Z,993.55
2019-04-03T03:38:08.337Z,993.5
2019-04-03T03:38:48.835Z,993.52
2019-04-03T03:39:29.663Z,993.5
2019-04-03T03:40:10.633Z,993.49
2019-04-03T03:40:51.919Z,993.49
2019-04-03T03:41:32.822Z,993.47
2019-04-03T03:42:12.980Z,993.47
2019-04-03T03:42:53.649Z,993.46
2019-04-03T03:43:36.648Z,993.43
2019-04-03T03:44:14.250Z,993.44
2019-04-03T03:44:54.679Z,993.42
2019-04-03T03:45:35.077Z,993.44
2019-04-03T03:46:15.710Z,993.45
2019-04-03T03:46:59.305Z,993.44
2019-04-03T03:47:37.055Z,993.4
2019-04-03T03:48:16.976Z,993.41
2019-04-03T03:48:57.377Z,993.41
2019-04-03T03:49:37.868Z,993.39
2019-04-03T03:50:22.216Z,993.39
2019-04-03T03:50:58.708Z,993.39
2019-04-03T03:51:39.044Z,993.39
2019-04-03T03:52:19.461Z,993.41
2019-04-03T03:52:59.860Z,993.41
2019-04-03T03:53:43.555Z,993.44
2019-04-03T03:54:20.692Z,993.41
2019-04-03T03:55:01.173Z,993.38
2019-04-03T03:55:41.519Z,993.4
2019-04-03T03:58:01.848Z,993.37
2019-04-03T03:58:44.526Z,993.34
2019-04-03T03:59:22.631Z,993.34
2019-04-03T04:00:02.828Z,993.29
2019-04-03T04:00:43.245Z,993.27
2019-04-03T04:01:23.628Z,993.24
2019-04-03T04:02:05.849Z,993.23
2019-04-03T04:02:45.157Z,993.24
2019-04-03T04:03:24.954Z,993.24
2019-04-03T04:04:06.241Z,993.23
2019-04-03T04:04:48.314Z,993.2
2019-04-03T04:05:27.196Z,993.18
2019-04-03T04:06:07.473Z,993.19
2019-04-03T04:06:47.886Z,993.16
2019-04-03T04:07:28.284Z,993.15
2019-04-03T04:08:10.411Z,993.14
2019-04-03T04:08:49.204Z,993.12
2019-04-03T04:09:29.781Z,993.1
2019-04-03T04:10:09.932Z,993.09
2019-04-03T04:10:50.361Z,993.12
2019-04-03T04:11:32.284Z,993.12
2019-04-03T04:12:11.156Z,993.11
2019-04-03T04:12:51.584Z,993.05
2019-04-03T04:13:32.420Z,993.08
2019-04-03T04:14:12.675Z,993.03
2019-04-03T04:14:55.951Z,993.04
2019-04-03T04:15:33.297Z,993.08
2019-04-03T04:16:13.924Z,993.07
2019-04-03T04:16:54.031Z,993.05
2019-04-03T04:17:34.453Z,993.07
2019-04-03T04:18:15.452Z,993.05
2019-04-03T04:18:56.921Z,993.08
2019-04-03T04:19:35.704Z,993.08
2019-04-03T04:20:16.316Z,993.01
2019-04-03T04:20:56.561Z,993.05
2019-04-03T04:21:37.288Z,993.05
2019-04-03T04:22:18.202Z,993.06
2019-04-03T04:22:57.849Z,993.07
2019-04-03T04:23:38.445Z,992.99
2019-04-03T04:24:18.840Z,992.98
2019-04-03T04:24:59.845Z,992.98
2019-04-03T04:25:39.489Z,993.02
2019-04-03T04:26:19.905Z,993
2019-04-03T04:27:03.115Z,992.99
2019-04-03T05:06:26.045Z,992.95
2019-04-03T05:07:06.039Z,992.96
2019-04-03T05:07:46.312Z,992.95
2019-04-03T05:08:26.681Z,992.99
2019-04-03T05:09:07.090Z,993.02
2019-04-03T05:09:47.474Z,993
2019-04-03T05:10:27.892Z,992.99
2019-04-03T05:11:08.323Z,993.02
2019-04-03T05:11:48.769Z,993.02
2019-04-03T05:12:29.147Z,993.01
2019-04-03T05:13:09.568Z,993.01
2019-04-03T05:13:50.116Z,993.03
2019-04-03T05:14:30.395Z,993.01
2019-04-03T05:15:10.888Z,993.04
2019-04-03T05:17:38.664Z,993.02
2019-04-03T05:18:19.043Z,993.04
2019-04-03T05:19:09.231Z,993
2019-04-03T05:19:39.884Z,992.93
2019-04-03T05:20:20.581Z,992.99
2019-04-03T05:21:00.850Z,993.02
2019-04-03T05:21:41.150Z,992.99
2019-04-03T05:22:21.839Z,993.04
2019-04-03T05:23:01.991Z,993
2019-04-03T05:23:42.392Z,993.05
2019-04-03T05:24:22.827Z,993.01
2019-04-03T05:25:03.297Z,993.06
2019-04-03T05:25:44.015Z,993.07
2019-04-03T05:26:24.608Z,993.08
2019-04-03T05:27:07.409Z,993.1
2019-04-03T05:27:45.868Z,993.07
2019-04-03T05:28:27.058Z,993.1
2019-04-03T05:29:07.525Z,993.09
2019-04-03T05:29:47.956Z,993.11
2019-04-03T05:30:31.193Z,993.13
2019-04-03T05:31:11.950Z,993.12
2019-04-03T05:31:52.371Z,993.11
2019-04-03T05:32:32.755Z,993.14
2019-04-03T05:33:13.169Z,993.17
2019-04-03T05:33:53.589Z,993.14
2019-04-03T05:36:22.643Z,993.17
2019-04-03T05:37:02.965Z,993.15
2019-04-03T05:37:43.312Z,993.12
2019-04-03T05:38:23.699Z,993.22
2019-04-03T05:39:04.110Z,993.12
2019-04-03T05:39:44.514Z,993.14
2019-04-03T05:40:26.081Z,993.19
2019-04-03T05:41:05.432Z,993.2
2019-04-03T05:41:45.845Z,993.16
2019-04-03T05:42:26.931Z,993.19
2019-04-03T05:43:06.696Z,993.18
2019-04-03T05:43:48.042Z,993.21
2019-04-03T05:44:28.587Z,993.22
2019-04-03T05:45:09.033Z,993.23
2019-04-03T05:45:50.420Z,993.27
2019-04-03T05:46:30.748Z,993.27
2019-04-03T05:47:11.111Z,993.3
2019-04-03T05:47:51.663Z,993.3
2019-04-03T05:48:32.455Z,993.32
2019-04-03T05:49:12.680Z,993.34
2019-04-03T05:49:55.507Z,993.35
2019-04-03T05:50:36.058Z,993.34
2019-04-03T05:51:14.946Z,993.36
2019-04-03T05:51:54.842Z,993.32
2019-04-03T05:52:35.705Z,993.31
2019-04-03T05:53:15.646Z,993.35
2019-04-03T05:53:56.277Z,993.31
2019-04-03T05:54:38.354Z,993.3
2019-04-03T05:55:16.961Z,993.35
2019-04-03T05:55:57.508Z,993.32
2019-04-03T05:56:38.106Z,993.33
2019-04-03T05:57:18.339Z,993.35
2019-04-03T05:57:58.780Z,993.33
2019-04-03T05:58:39.112Z,993.33
2019-04-03T05:59:19.538Z,993.33
2019-04-03T06:00:02.019Z,993.35
2019-04-03T06:00:40.372Z,993.34
2019-04-03T06:01:21.511Z,993.33
2019-04-03T06:02:13.730Z,993.31
2019-04-03T06:02:42.358Z,993.27
2019-04-03T06:03:37.170Z,993.31
2019-04-03T06:04:05.192Z,993.28
2019-04-03T06:04:45.462Z,993.28
2019-04-03T06:05:25.765Z,993.29
2019-04-03T06:06:06.338Z,993.27
2019-04-03T06:06:47.270Z,993.26
2019-04-03T06:07:27.650Z,993.26
2019-04-03T06:08:08.053Z,993.25
2019-04-03T06:08:50.613Z,993.27
2019-04-03T06:09:29.779Z,993.27
2019-04-03T06:10:12.599Z,993.25
2019-04-03T06:10:54.951Z,993.26
2019-04-03T06:11:35.468Z,993.29
2019-04-03T06:12:18.192Z,993.3
2019-04-03T06:12:56.350Z,993.25
2019-04-03T06:13:36.951Z,993.27
2019-04-03T06:14:18.721Z,993.27
2019-04-03T06:14:57.960Z,993.28
2019-04-03T06:15:38.835Z,993.3
2019-04-03T06:16:19.493Z,993.29
2019-04-03T06:17:00.011Z,993.32
2019-04-03T06:17:40.445Z,993.31
2019-04-03T06:18:20.890Z,993.3
2019-04-03T06:19:01.901Z,993.36
2019-04-03T06:19:42.085Z,993.35
2019-04-03T06:20:22.545Z,993.35
2019-04-03T06:21:03.254Z,993.37
2019-04-03T06:21:45.394Z,993.33
2019-04-03T06:22:24.288Z,993.31
2019-04-03T06:23:05.518Z,993.31
2019-04-03T06:23:46.109Z,993.31
2019-04-03T06:24:27.967Z,993.32
2019-04-03T06:25:12.895Z,993.28
2019-04-03T06:25:49.526Z,993.23
2019-04-03T06:26:30.971Z,993.26
2019-04-03T06:27:11.498Z,993.26
2019-04-03T06:27:51.635Z,993.27
2019-04-03T06:28:32.340Z,993.26
2019-04-03T06:29:12.793Z,993.29
2019-04-03T06:29:54.999Z,993.32
2019-04-03T06:30:33.673Z,993.27
2019-04-03T06:31:14.279Z,993.29
2019-04-03T06:31:55.894Z,993.3
2019-04-03T06:32:35.441Z,993.26
2019-04-03T06:33:15.975Z,993.27
2019-04-03T06:33:56.629Z,993.26
2019-04-03T06:34:38.585Z,993.26
2019-04-03T06:35:17.959Z,993.25
2019-04-03T06:35:58.970Z,993.23
2019-04-03T06:36:38.994Z,993.23
2019-04-03T06:37:20.147Z,993.21
2019-04-03T06:38:00.196Z,993.2
2019-04-03T06:38:40.538Z,993.19
2019-04-03T06:39:22.734Z,993.22
2019-04-03T06:40:03.876Z,993.21
2019-04-03T06:40:43.499Z,993.22
2019-04-03T06:41:24.028Z,993.18
2019-04-03T06:42:04.590Z,993.16
2019-04-03T06:42:45.635Z,993.12
2019-04-03T06:43:25.369Z,993.11
2019-04-03T06:44:05.902Z,993.11
2019-04-03T06:44:46.274Z,993.08
2019-04-03T06:45:27.078Z,993.07
2019-04-03T06:46:07.174Z,993.05
2019-04-03T06:46:47.739Z,993.06
2019-04-03T06:47:30.016Z,993.02
2019-04-03T06:48:10.147Z,993
2019-04-03T06:48:50.622Z,992.99
2019-04-03T06:49:31.387Z,992.98
2019-04-03T06:50:13.167Z,992.98
2019-04-03T06:50:52.486Z,993.03
2019-04-03T06:51:32.667Z,993.01
2019-04-03T06:52:13.301Z,992.98
2019-04-03T06:52:53.700Z,993.03
2019-04-03T06:53:33.862Z,993.02
2019-04-03T06:54:14.525Z,993.04
2019-04-03T06:54:54.711Z,993.1
2019-04-03T06:55:36.083Z,993.15
2019-04-03T06:56:15.804Z,993.21
2019-04-03T06:56:56.040Z,993.2
2019-04-03T06:57:39.052Z,993.26
2019-04-03T06:58:17.304Z,993.24
2019-04-03T06:58:59.535Z,993.24
2019-04-03T06:59:39.953Z,993.28
2019-04-03T07:00:20.534Z,993.25
2019-04-03T07:01:01.964Z,993.31
2019-04-03T07:01:42.816Z,993.28
2019-04-03T07:02:23.034Z,993.29
2019-04-03T07:03:04.126Z,993.27
2019-04-03T07:03:44.750Z,993.24
2019-04-03T07:04:24.892Z,993.22
2019-04-03T07:05:05.547Z,993.22
2019-04-03T07:05:45.800Z,993.18
2019-04-03T07:06:26.208Z,993.18
2019-04-03T07:07:07.079Z,993.23
2019-04-03T07:07:47.441Z,993.21
2019-04-03T07:08:34.527Z,993.21
2019-04-03T07:09:21.527Z,993.18
2019-04-03T07:09:51.243Z,993.22
2019-04-03T07:10:31.147Z,993.17
2019-04-03T07:11:22.610Z,993.16
2019-04-03T07:11:52.129Z,993.13
2019-04-03T07:12:33.318Z,993.17
2019-04-03T07:13:15.129Z,993.17
2019-04-03T07:13:54.441Z,993.2
2019-04-03T07:14:34.655Z,993.2
2019-04-03T07:15:15.810Z,993.16
2019-04-03T07:15:56.944Z,993.16
2019-04-03T07:16:38.248Z,993.13
2019-04-03T07:17:18.425Z,993.11
2019-04-03T07:18:01.038Z,993.03
2019-04-03T07:18:39.515Z,993.03
2019-04-03T07:19:22.168Z,992.98
2019-04-03T07:20:12.291Z,992.93
2019-04-03T07:20:43.123Z,992.88
2019-04-03T07:21:27.004Z,992.89
2019-04-03T07:22:05.040Z,992.83
2019-04-03T07:22:46.215Z,992.86
2019-04-03T07:23:27.776Z,992.87
2019-04-03T07:24:08.065Z,992.87
2019-04-03T07:24:48.510Z,992.85
2019-04-03T07:25:28.996Z,992.84
2019-04-03T07:26:12.043Z,992.89
2019-04-03T07:26:52.485Z,992.89
2019-04-03T07:27:32.928Z,992.91
2019-04-03T07:28:13.426Z,992.92
2019-04-03T07:28:54.751Z,992.9
2019-04-03T07:29:35.191Z,992.9
2019-04-03T07:30:17.330Z,992.93
2019-04-03T07:30:56.258Z,993
2019-04-03T07:31:36.585Z,993.01
2019-04-03T07:32:17.162Z,993.01
2019-04-03T07:32:58.446Z,993.04
2019-04-03T07:33:37.855Z,993.08
2019-04-03T07:34:18.449Z,993.09
2019-04-03T07:34:58.835Z,993.09
2019-04-03T07:35:40.615Z,993.14
2019-04-03T07:36:20.168Z,993.12
2019-04-03T07:37:00.965Z,993.12
2019-04-03T07:37:41.226Z,993.12
2019-04-03T07:38:22.731Z,993.16
2019-04-03T07:39:03.064Z,993.13
2019-04-03T07:39:43.231Z,993.12
2019-04-03T07:40:23.614Z,993.12
2019-04-03T07:41:04.117Z,993.14
2019-04-03T07:41:45.180Z,993.19
2019-04-03T07:42:25.607Z,993.2
2019-04-03T07:43:06.124Z,993.17
2019-04-03T07:43:46.863Z,993.19
2019-04-03T07:44:27.631Z,993.21
2019-04-03T07:45:07.793Z,993.18
2019-04-03T07:45:47.979Z,993.16
2019-04-03T07:46:28.394Z,993.18
2019-04-03T07:47:08.868Z,993.16
2019-04-03T07:47:49.319Z,993.19
2019-04-03T07:48:32.784Z,993.17
2019-04-03T07:49:10.584Z,993.23
2019-04-03T07:49:51.043Z,993.23
2019-04-03T07:50:31.460Z,993.26
2019-04-03T07:51:13.944Z,993.29
2019-04-03T07:51:55.305Z,993.31
2019-04-03T07:52:35.947Z,993.31
2019-04-03T07:53:16.228Z,993.39
2019-04-03T07:53:57.505Z,993.38
2019-04-03T07:54:37.433Z,993.43
2019-04-03T07:55:18.116Z,993.45
2019-04-03T07:55:59.197Z,993.47
2019-04-03T07:56:39.582Z,993.46
2019-04-03T07:57:20.179Z,993.48
2019-04-03T07:58:01.019Z,993.44
2019-04-03T07:58:40.945Z,993.46
2019-04-03T07:59:21.539Z,993.44
2019-04-03T08:00:02.231Z,993.42
2019-04-03T08:00:43.206Z,993.4
2019-04-03T08:01:23.620Z,993.39
2019-04-03T08:02:04.234Z,993.43
2019-04-03T08:02:47.584Z,993.41
2019-04-03T08:03:25.482Z,993.37
2019-04-03T08:04:05.903Z,993.4
2019-04-03T08:04:46.291Z,993.43
2019-04-03T08:05:30.100Z,993.35
2019-04-03T08:06:08.501Z,993.36
2019-04-03T08:06:48.537Z,993.36
2019-04-03T08:07:29.845Z,993.36
2019-04-03T08:11:18.447Z,993.35
2019-04-03T08:11:58.998Z,993.36
2019-04-03T08:12:40.574Z,993.36
2019-04-03T08:13:21.210Z,993.32
2019-04-03T08:14:03.948Z,993.34
2019-04-03T08:14:44.368Z,993.27
2019-04-03T08:15:25.076Z,993.24
2019-04-03T08:16:05.649Z,993.25
2019-04-03T08:16:48.064Z,993.22
2019-04-03T08:17:27.994Z,993.18
2019-04-03T08:18:07.999Z,993.17
2019-04-03T08:18:49.901Z,993.17
2019-04-03T08:19:29.269Z,993.13
2019-04-03T08:20:09.928Z,993.16
2019-04-03T08:20:51.050Z,993.14
2019-04-03T08:21:31.786Z,993.14
2019-04-03T08:22:15.925Z,993.18
2019-04-03T08:22:58.594Z,993.14
2019-04-03T08:23:39.231Z,993.18
2019-04-03T08:24:20.598Z,993.17
2019-04-03T08:25:01.017Z,993.2
2019-04-03T08:25:43.744Z,993.25
2019-04-03T08:26:22.865Z,993.2
2019-04-03T08:27:03.722Z,993.19
2019-04-03T08:27:45.201Z,993.26
2019-04-03T08:28:30.214Z,993.22
2019-04-03T08:29:10.499Z,993.28
2019-04-03T08:29:51.915Z,993.28
2019-04-03T08:30:33.453Z,993.29
2019-04-03T08:31:13.697Z,993.32
2019-04-03T08:31:54.827Z,993.26
2019-04-03T08:36:24.855Z,993.29
2019-04-03T08:38:04.073Z,993.33
2019-04-03T08:38:45.406Z,993.26
2019-04-03T08:39:27.350Z,993.3
2019-04-03T08:40:09.268Z,993.26
2019-04-03T08:40:52.076Z,993.27
2019-04-03T08:41:31.091Z,993.26
2019-04-03T08:42:13.321Z,993.28
2019-04-03T08:42:53.931Z,993.32
2019-04-03T08:43:34.359Z,993.33
2019-04-03T08:44:15.888Z,993.35
2019-04-03T08:44:58.029Z,993.35
2019-04-03T08:45:38.374Z,993.34
2019-04-03T08:46:19.387Z,993.38
2019-04-03T08:46:59.884Z,993.34
2019-04-03T08:47:40.796Z,993.31
2019-04-03T08:48:21.580Z,993.32
2019-04-03T08:49:03.326Z,993.3
2019-04-03T08:49:43.695Z,993.29
2019-04-03T08:50:24.365Z,993.36
2019-04-03T08:51:06.051Z,993.3
2019-04-03T08:51:46.140Z,993.36
2019-04-03T08:52:26.907Z,993.35
2019-04-03T08:53:08.889Z,993.32
2019-04-03T08:53:49.997Z,993.33
2019-04-03T08:54:30.364Z,993.35
2019-04-03T08:55:13.754Z,993.31
2019-04-03T08:55:52.433Z,993.3
2019-04-03T08:56:32.542Z,993.34
2019-04-03T08:57:13.579Z,993.36
2019-04-03T08:57:54.799Z,993.32
2019-04-03T08:58:35.988Z,993.37
2019-04-03T09:00:50.818Z,993.43
2019-04-03T09:01:32.565Z,993.38
2019-04-03T09:02:13.972Z,993.43
2019-04-03T09:02:55.518Z,993.4
2019-04-03T09:03:35.952Z,993.36
2019-04-03T09:04:17.860Z,993.39
2019-04-03T09:04:56.935Z,993.4
2019-04-03T09:05:38.211Z,993.4
2019-04-03T09:06:18.729Z,993.44
2019-04-03T09:07:00.107Z,993.4
2019-04-03T09:07:43.125Z,993.39
2019-04-03T09:08:26.492Z,993.39
2019-04-03T09:11:00.928Z,993.39
2019-04-03T09:11:42.379Z,993.38
2019-04-03T09:12:24.178Z,993.4
2019-04-03T09:13:15.708Z,993.4
2019-04-03T09:13:44.954Z,993.37
2019-04-03T09:14:27.330Z,993.41
2019-04-03T09:15:06.690Z,993.45
2019-04-03T09:15:47.439Z,993.45
2019-04-03T09:16:28.763Z,993.47
2019-04-03T09:17:09.642Z,993.45
2019-04-03T09:17:49.670Z,993.49
2019-04-03T09:18:30.934Z,993.48
2019-04-03T09:19:12.125Z,993.53
2019-04-03T09:19:51.733Z,993.53
2019-04-03T09:20:35.351Z,993.51
2019-04-03T09:21:15.012Z,993.51
2019-04-03T09:21:54.405Z,993.49
2019-04-03T09:22:34.437Z,993.43
2019-04-03T09:23:15.044Z,993.42
2019-04-03T09:23:57.843Z,993.41
2019-04-03T09:24:36.881Z,993.35
2019-04-03T09:25:17.039Z,993.3
2019-04-03T09:25:58.419Z,993.32
2019-04-03T09:26:38.819Z,993.3
2019-04-03T09:27:19.859Z,993.24
2019-04-03T09:28:00.147Z,993.31
2019-04-03T09:28:42.450Z,993.28
2019-04-03T09:29:24.393Z,993.29
2019-04-03T09:30:05.164Z,993.34
2019-04-03T09:30:47.857Z,993.32
2019-04-03T09:31:27.256Z,993.29
2019-04-03T09:32:09.432Z,993.27
2019-04-03T09:32:50.226Z,993.28
2019-04-03T09:33:31.601Z,993.26
2019-04-03T09:34:12.201Z,993.29
2019-04-03T09:34:55.917Z,993.2
2019-04-03T09:35:36.805Z,993.25
2019-04-03T09:36:17.274Z,993.19
2019-04-03T09:36:58.483Z,993.22
2019-04-03T09:37:39.478Z,993.23
2019-04-03T09:38:20.197Z,993.18
2019-04-03T09:39:01.551Z,993.21
2019-04-03T09:39:42.663Z,993.16